Time;durP1;ratioP1;P1;durP2;ratioP2;P2;SDS_P1;SDS_P2;PMS_P1;PMS_P2;Temp;Humidity;BMP_temperature;BMP_pressure;BME280_temperature;BME280_humidity;BME280_pressure;Samples;Min_cycle;Max_cycle;Signal;HPM_P1;HPM_P2
2022/11/22 00:01:45;;;;;;;29.35;17.80;;;;;;;-2.03;88.87;99664.13;7400188;19;20022;-69
2022/11/22 00:04:16;;;;;;;28.50;17.83;;;;;;;-2.07;88.71;99660.63;7397639;19;20019;-68
2022/11/22 00:06:45;;;;;;;27.88;17.25;;;;;;;-2.09;88.84;99656.31;7400529;19;20074;-69
2022/11/22 00:09:13;;;;;;;27.48;16.30;;;;;;;-2.11;88.96;99661.44;7398850;19;20031;-68
2022/11/22 00:11:42;;;;;;;31.65;18.50;;;;;;;-2.13;88.93;99663.97;7399192;19;20511;-68
2022/11/22 00:14:10;;;;;;;28.42;17.33;;;;;;;-2.14;88.81;99654.56;7399818;19;20031;-68
2022/11/22 00:16:39;;;;;;;28.48;18.15;;;;;;;-2.15;88.86;99649.38;7399682;19;20014;-68
2022/11/22 00:19:07;;;;;;;30.50;18.42;;;;;;;-2.18;88.86;99652.78;7398306;19;20429;-68
2022/11/22 00:21:38;;;;;;;25.42;17.35;;;;;;;-2.20;88.92;99635.63;7397158;19;20023;-69
2022/11/22 00:24:07;;;;;;;27.77;17.48;;;;;;;-2.22;89.18;99645.88;7396478;19;20489;-69
2022/11/22 00:26:36;;;;;;;29.42;18.45;;;;;;;-2.23;89.17;99644.16;7398997;19;20379;-69
2022/11/22 00:29:05;;;;;;;28.73;18.80;;;;;;;-2.26;89.20;99639.00;7398047;19;20384;-68
2022/11/22 00:31:34;;;;;;;31.05;18.88;;;;;;;-2.27;89.08;99636.38;7399257;19;20035;-68
2022/11/22 00:34:02;;;;;;;30.20;19.48;;;;;;;-2.29;89.29;99633.78;7396797;19;20078;-68
2022/11/22 00:36:31;;;;;;;27.23;17.98;;;;;;;-2.30;89.56;99635.53;7396770;19;20023;-68
2022/11/22 00:39:02;;;;;;;26.83;17.42;;;;;;;-2.31;89.44;99641.50;7396724;19;20036;-69
2022/11/22 00:41:30;;;;;;;27.85;18.27;;;;;;;-2.32;89.24;99634.63;7398502;19;20036;-68
2022/11/22 00:43:59;;;;;;;29.23;17.95;;;;;;;-2.33;89.15;99632.88;7396639;19;20014;-68
2022/11/22 00:46:27;;;;;;;28.02;17.40;;;;;;;-2.35;89.57;99632.03;7398417;19;20018;-68
2022/11/22 00:48:56;;;;;;;27.88;17.90;;;;;;;-2.37;89.19;99628.56;7397857;19;20019;-68
2022/11/22 00:51:24;;;;;;;31.92;19.67;;;;;;;-2.38;89.24;99625.97;7398545;19;20032;-68
2022/11/22 00:53:53;;;;;;;28.80;17.98;;;;;;;-2.40;89.36;99625.97;7396535;19;20022;-68
2022/11/22 00:56:24;;;;;;;28.23;18.02;;;;;;;-2.41;89.49;99628.50;7397995;19;20014;-68
2022/11/22 00:58:52;;;;;;;30.17;18.65;;;;;;;-2.48;89.57;99620.75;7398210;19;20053;-68
2022/11/22 01:01:21;;;;;;;28.98;18.25;;;;;;;-2.44;89.50;99619.03;7397354;19;20014;-69
2022/11/22 01:03:49;;;;;;;29.25;19.38;;;;;;;-2.46;89.47;99618.19;7396693;19;20035;-69
2022/11/22 01:06:18;;;;;;;32.17;20.00;;;;;;;-2.50;89.43;99612.13;7397668;19;20090;-69
2022/11/22 01:08:47;;;;;;;29.75;18.48;;;;;;;-2.51;89.66;99612.97;7397507;19;20031;-68
2022/11/22 01:11:17;;;;;;;28.20;18.73;;;;;;;-2.54;89.63;99615.53;7395446;19;20500;-69
2022/11/22 01:13:49;;;;;;;32.72;19.55;;;;;;;-2.55;89.78;99615.47;7396656;19;20425;-69
2022/11/22 01:16:19;;;;;;;30.00;19.02;;;;;;;-2.58;89.91;99606.03;7395403;19;20376;-68
2022/11/22 01:18:47;;;;;;;31.80;19.33;;;;;;;-2.59;89.76;99613.72;7395596;19;20022;-67
2022/11/22 01:21:16;;;;;;;30.35;18.65;;;;;;;-2.63;90.04;99605.97;7397525;19;20018;-68
2022/11/22 01:23:45;;;;;;;30.33;19.15;;;;;;;-2.64;90.04;99604.25;7397570;19;20077;-68
2022/11/22 01:26:14;;;;;;;30.40;19.40;;;;;;;-2.66;89.89;99602.50;7395322;19;20023;-67
2022/11/22 01:28:43;;;;;;;31.75;19.45;;;;;;;-2.65;89.76;99614.50;7396526;19;20018;-68
2022/11/22 01:31:14;;;;;;;31.70;19.50;;;;;;;-2.67;89.99;99621.31;7396979;19;20518;-68
2022/11/22 01:33:44;;;;;;;32.80;20.05;;;;;;;-2.68;89.96;99615.34;7396469;19;20015;-68
2022/11/22 01:36:13;;;;;;;32.45;19.77;;;;;;;-2.71;90.17;99605.00;7396965;19;20024;-67
2022/11/22 01:38:42;;;;;;;32.80;19.67;;;;;;;-2.71;89.90;99610.13;7394929;19;20504;-68
2022/11/22 01:41:10;;;;;;;31.38;19.27;;;;;;;-2.72;90.13;99616.09;7395036;19;20014;-68
2022/11/22 01:43:39;;;;;;;33.17;20.27;;;;;;;-2.73;90.11;99610.97;7397081;19;20019;-68
2022/11/22 01:46:11;;;;;;;34.05;21.02;;;;;;;-2.74;90.29;99611.78;7396850;19;20019;-68
2022/11/22 01:48:50;;;;;;;30.00;18.92;;;;;;;-2.76;90.36;99604.06;7394695;19;20484;-67
2022/11/22 01:51:26;;;;;;;36.35;19.98;;;;;;;-2.78;90.18;99614.34;7397283;19;20018;-67
2022/11/22 01:53:58;;;;;;;33.55;21.85;;;;;;;-2.79;90.28;99594.63;7394519;19;20019;-68
2022/11/22 01:56:29;;;;;;;55.63;31.10;;;;;;;-2.80;90.54;99603.16;7396297;19;20035;-68
2022/11/22 01:59:01;;;;;;;43.65;25.67;;;;;;;-2.79;90.39;99606.63;7394479;19;20035;-68
2022/11/22 02:01:34;;;;;;;37.28;21.33;;;;;;;-2.81;90.50;99604.00;7396560;19;20023;-66
2022/11/22 02:04:08;;;;;;;34.95;20.55;;;;;;;-2.80;90.58;99605.72;7394348;19;20015;-68
2022/11/22 02:06:43;;;;;;;33.15;21.02;;;;;;;-2.80;90.59;99610.88;7396410;19;20022;-68
2022/11/22 02:09:14;;;;;;;36.90;22.33;;;;;;;-2.80;90.35;99605.72;7395147;19;20078;-67
2022/11/22 02:11:48;;;;;;;36.38;21.30;;;;;;;-2.81;90.53;99606.56;7395844;19;20014;-68
2022/11/22 02:14:21;;;;;;;40.78;22.42;;;;;;;-2.80;90.71;99600.59;7394539;19;20074;-66
2022/11/22 02:16:50;;;;;;;37.78;22.40;;;;;;;-2.81;90.58;99604.00;7395679;19;20034;-66
2022/11/22 02:19:38;;;;;;;37.75;22.02;;;;;;;-2.80;90.52;99600.59;7394968;19;20022;-67
2022/11/22 02:22:14;;;;;;;36.67;23.23;;;;;;;-2.80;90.52;99598.03;7396137;19;20041;-67
2022/11/22 02:24:52;;;;;;;41.50;23.08;;;;;;;-2.82;90.57;99589.47;7397023;19;20419;-67
2022/11/22 02:27:23;;;;;;;37.95;23.52;;;;;;;-2.83;90.38;99585.16;7393591;19;20485;-67
2022/11/22 02:29:51;;;;;;;35.00;21.75;;;;;;;-2.83;90.66;99590.31;7394827;19;20083;-66
2022/11/22 02:32:20;;;;;;;40.63;23.52;;;;;;;-2.82;90.69;99581.75;7393626;19;20035;-66
2022/11/22 02:34:51;;;;;;;37.28;23.10;;;;;;;-2.82;90.79;99566.34;7395430;19;20433;-66
2022/11/22 02:37:24;;;;;;;44.50;24.77;;;;;;;-2.82;90.49;99571.50;7394943;19;20010;-66
2022/11/22 02:39:57;;;;;;;37.03;22.67;;;;;;;-2.83;90.57;99569.75;7393726;19;20022;-66
2022/11/22 02:42:30;;;;;;;38.70;22.60;;;;;;;-2.83;90.67;99574.00;7393869;19;20035;-66
2022/11/22 02:44:58;;;;;;;41.42;25.52;;;;;;;-2.86;90.75;99569.69;7392991;19;20015;-66
2022/11/22 02:47:27;;;;;;;45.10;25.33;;;;;;;-2.85;90.53;99570.59;7392951;19;20531;-66
2022/11/22 02:49:55;;;;;;;41.53;23.73;;;;;;;-2.87;90.49;99550.03;7393403;19;20036;-67
2022/11/22 02:52:24;;;;;;;41.70;24.20;;;;;;;-2.89;90.72;99553.41;7395002;19;20023;-67
2022/11/22 02:54:52;;;;;;;39.03;23.25;;;;;;;-2.90;90.63;99549.97;7394837;19;20032;-67
2022/11/22 02:57:21;;;;;;;40.88;24.25;;;;;;;-2.91;90.83;99555.94;7394883;19;20028;-67
2022/11/22 02:59:52;;;;;;;40.67;23.08;;;;;;;-2.92;90.62;99543.09;7392971;19;20039;-66
2022/11/22 03:02:20;;;;;;;43.22;25.40;;;;;;;-2.93;90.65;99547.38;7394944;19;20021;-66
2022/11/22 03:04:49;;;;;;;42.53;23.73;;;;;;;-2.96;90.52;99543.06;7394199;19;20414;-67
2022/11/22 03:07:18;;;;;;;41.47;24.02;;;;;;;-2.97;90.80;99538.78;7394580;19;20023;-66
2022/11/22 03:09:46;;;;;;;39.45;24.13;;;;;;;-2.99;90.56;99537.03;7392760;19;20366;-67
2022/11/22 03:12:15;;;;;;;42.08;24.15;;;;;;;-3.03;90.65;99524.97;7394371;19;20018;-67
2022/11/22 03:14:43;;;;;;;44.33;24.40;;;;;;;-3.06;90.67;99528.38;7391952;19;20477;-66
2022/11/22 03:17:14;;;;;;;41.58;23.48;;;;;;;-3.09;90.71;99527.47;7394809;19;20010;-67
2022/11/22 03:19:43;;;;;;;41.97;24.27;;;;;;;-3.11;90.68;99537.69;7394357;19;20025;-67
2022/11/22 03:22:12;;;;;;;43.55;25.27;;;;;;;-3.13;90.97;99536.84;7394852;19;20015;-67
2022/11/22 03:24:40;;;;;;;42.28;23.58;;;;;;;-3.14;90.94;99538.53;7393739;19;20032;-67
2022/11/22 03:27:09;;;;;;;46.97;25.02;;;;;;;-3.17;91.12;99538.50;7401940;19;20014;-67
2022/11/22 03:29:38;;;;;;;42.70;23.67;;;;;;;-3.18;90.99;99531.63;7399697;19;20014;-67
2022/11/22 03:32:07;;;;;;;41.08;23.58;;;;;;;-3.17;91.05;99535.03;7401276;19;20018;-67
2022/11/22 03:34:38;;;;;;;42.30;25.85;;;;;;;-3.19;91.10;99529.03;7399002;19;20014;-67
2022/11/22 03:37:06;;;;;;;43.53;24.25;;;;;;;-3.21;90.97;99518.78;7398258;19;20011;-67
2022/11/22 03:39:35;;;;;;;43.50;25.27;;;;;;;-3.24;90.94;99518.72;7398573;19;20018;-67
2022/11/22 03:42:03;;;;;;;43.90;24.73;;;;;;;-3.26;91.36;99522.97;7401033;19;20018;-67
2022/11/22 03:44:32;;;;;;;46.92;25.20;;;;;;;-3.27;91.11;99526.38;7398011;19;20497;-67
2022/11/22 03:47:00;;;;;;;46.65;25.50;;;;;;;-3.28;91.20;99537.47;7400532;19;20502;-67
2022/11/22 03:49:29;;;;;;;44.30;25.88;;;;;;;-3.28;91.34;99540.03;7399355;19;20028;-67
2022/11/22 03:52:00;;;;;;;44.53;25.17;;;;;;;-3.28;91.59;99537.47;7398143;19;20018;-67
2022/11/22 03:54:28;;;;;;;43.03;24.48;;;;;;;-3.28;91.31;99546.00;7399091;19;20035;-67
2022/11/22 03:56:57;;;;;;;47.30;25.88;;;;;;;-3.27;91.48;99552.03;7398025;19;20014;-67
2022/11/22 03:59:25;;;;;;;47.28;25.50;;;;;;;-3.26;91.47;99543.50;7398887;19;20027;-67
2022/11/22 04:01:54;;;;;;;49.95;27.00;;;;;;;-3.26;91.65;99540.94;7400276;19;20038;-67
2022/11/22 04:04:22;;;;;;;49.40;26.75;;;;;;;-3.27;91.28;99529.78;7400129;19;20033;-67
2022/11/22 04:06:51;;;;;;;45.53;26.50;;;;;;;-3.27;91.31;99524.66;7399831;19;20014;-67
2022/11/22 04:09:22;;;;;;;49.53;27.42;;;;;;;-3.29;91.42;99518.63;7398342;19;20018;-67
2022/11/22 04:11:50;;;;;;;51.75;27.42;;;;;;;-3.29;91.49;99516.06;7399462;19;20383;-67
2022/11/22 04:17:00;;;;;;;53.50;28.50;;;;;;;-3.27;91.79;99513.53;7400419;19;20014;-67
2022/11/22 04:19:28;;;;;;;55.35;28.15;;;;;;;-3.27;91.63;99510.97;7398371;19;20018;-67
2022/11/22 04:21:54;;;;;;;55.63;27.05;;;;;;;-3.27;91.86;99509.25;7399663;19;20104;-67
2022/11/22 04:27:06;;;;;;;52.58;27.13;;;;;;;-3.24;91.71;99508.44;7398996;19;20029;-67
2022/11/22 04:29:35;;;;;;;50.72;27.00;;;;;;;-3.23;91.86;99515.31;7396511;19;20477;-67
2022/11/22 04:34:44;;;;;;;54.22;28.63;;;;;;;-3.22;92.16;99508.47;7397301;19;20010;-67
2022/11/22 04:37:12;;;;;;;47.70;26.92;;;;;;;-3.20;92.07;99517.06;7396070;19;20082;-67
2022/11/22 04:39:43;;;;;;;54.03;28.27;;;;;;;-3.19;92.04;99522.19;7397732;19;20463;-67
2022/11/22 04:44:53;;;;;;;54.70;27.80;;;;;;;-3.14;92.11;99532.53;7399316;19;20500;-67
2022/11/22 04:50:03;;;;;;;58.75;28.35;;;;;;;-3.09;92.10;99535.19;7396703;19;20018;-67
2022/11/22 04:55:15;;;;;;;57.53;29.77;;;;;;;-3.05;92.14;99527.53;7397095;19;20006;-67
2022/11/22 04:57:43;;;;;;;57.35;28.88;;;;;;;-3.03;92.07;99523.28;7398430;19;20018;-67
2022/11/22 05:00:19;;;;;;;52.67;28.88;;;;;;;-2.99;92.23;99521.63;7395299;19;20044;-67
2022/11/22 05:02:48;;;;;;;54.75;27.65;;;;;;;-2.98;92.10;99518.22;7398279;19;20022;-67
2022/11/22 05:05:16;;;;;;;56.13;29.23;;;;;;;-2.97;92.25;99517.34;7398012;19;20026;-67
2022/11/22 05:07:45;;;;;;;54.90;27.92;;;;;;;-2.95;92.01;99524.25;7397472;19;20059;-67
2022/11/22 05:10:16;;;;;;;55.10;28.10;;;;;;;-2.94;92.04;99514.84;7395546;19;20423;-68
2022/11/22 05:12:45;;;;;;;57.72;28.95;;;;;;;-2.92;92.34;99515.72;7397881;19;20074;-67
2022/11/22 05:15:14;;;;;;;59.10;28.85;;;;;;;-2.90;92.22;99514.03;7395418;19;20035;-67
2022/11/22 05:17:42;;;;;;;61.95;29.13;;;;;;;-2.89;92.15;99528.59;7397438;19;20430;-68
2022/11/22 05:20:12;;;;;;;57.65;29.95;;;;;;;-2.88;92.19;99508.91;7395038;19;20020;-68
2022/11/22 05:25:30;;;;;;;59.05;29.35;;;;;;;-2.87;92.41;99526.94;7395936;19;20042;-67
2022/11/22 05:28:05;;;;;;;57.92;29.55;;;;;;;-2.86;92.29;99513.22;7397442;19;20035;-68
2022/11/22 05:30:33;;;;;;;58.53;28.30;;;;;;;-2.84;92.45;99511.56;7395203;19;20042;-67
2022/11/22 05:33:02;;;;;;;55.67;27.25;;;;;;;-2.82;92.71;99509.00;7395493;19;20023;-67
2022/11/22 05:35:30;;;;;;;59.10;28.00;;;;;;;-2.82;92.59;99511.56;7394255;19;20557;-67
2022/11/22 05:37:59;;;;;;;64.22;30.00;;;;;;;-2.83;92.53;99509.84;7396939;19;20018;-68
2022/11/22 05:40:30;;;;;;;60.45;29.17;;;;;;;-2.81;92.71;99506.44;7394128;19;20039;-67
2022/11/22 05:42:59;;;;;;;62.25;29.98;;;;;;;-2.82;92.74;99509.00;7396741;19;20078;-67
2022/11/22 05:45:28;;;;;;;61.50;29.45;;;;;;;-2.79;92.93;99511.63;7394399;19;20082;-68
2022/11/22 05:47:57;;;;;;;59.20;28.00;;;;;;;-2.77;92.79;99509.91;7393166;19;20018;-67
2022/11/22 05:50:26;;;;;;;59.38;28.88;;;;;;;-2.73;92.82;99516.84;7394147;19;20074;-67
2022/11/22 05:52:54;;;;;;;55.20;27.25;;;;;;;-2.73;93.02;99509.13;7396871;19;20018;-68
2022/11/22 05:55:22;;;;;;;63.13;29.55;;;;;;;-2.71;93.04;99514.28;7395152;19;20359;-68
2022/11/22 05:57:54;;;;;;;58.58;27.35;;;;;;;-2.70;93.14;99516.00;7395023;19;20031;-67
2022/11/22 06:00:22;;;;;;;60.25;27.38;;;;;;;-2.70;93.09;99516.88;7394574;19;20026;-67
2022/11/22 06:02:51;;;;;;;61.60;28.55;;;;;;;-2.67;93.05;99523.75;7393553;19;20019;-67
2022/11/22 06:05:19;;;;;;;57.88;29.45;;;;;;;-2.65;93.26;99533.19;7395416;19;20453;-68
2022/11/22 06:07:48;;;;;;;58.72;28.30;;;;;;;-2.65;93.28;99538.31;7394474;19;20027;-68
2022/11/22 06:10:18;;;;;;;60.33;28.42;;;;;;;-2.62;93.28;99538.38;7394066;19;20035;-68
2022/11/22 06:12:47;;;;;;;63.08;27.63;;;;;;;-2.60;93.64;99535.81;7396829;19;20022;-69
2022/11/22 06:15:18;;;;;;;59.85;26.98;;;;;;;-2.58;93.49;99528.97;7394060;19;20090;-68
2022/11/22 06:17:46;;;;;;;58.22;27.45;;;;;;;-2.55;93.48;99538.44;7395056;19;20069;-67
2022/11/22 06:20:15;;;;;;;59.80;30.42;;;;;;;-2.55;93.48;99544.44;7393311;19;20023;-67
2022/11/22 06:22:43;;;;;;;58.47;28.58;;;;;;;-2.52;93.58;99551.31;7392376;19;20031;-69
2022/11/22 06:25:12;;;;;;;59.00;27.67;;;;;;;-2.51;93.33;99538.50;7394425;19;20031;-67
2022/11/22 06:27:41;;;;;;;59.38;27.77;;;;;;;-2.49;93.49;99539.38;7395593;19;20058;-66
2022/11/22 06:30:10;;;;;;;60.40;25.83;;;;;;;-2.48;93.69;99546.25;7392666;19;20026;-67
2022/11/22 06:32:41;;;;;;;59.72;29.13;;;;;;;-2.47;93.60;99547.94;7392823;19;20022;-67
2022/11/22 06:35:11;;;;;;;56.45;25.83;;;;;;;-2.43;93.67;99545.44;7394546;19;20015;-67
2022/11/22 06:37:39;;;;;;;65.10;29.23;;;;;;;-2.43;93.62;99559.13;7392717;19;20436;-66
2022/11/22 06:40:10;;;;;;;59.65;27.10;;;;;;;-2.41;93.45;99570.28;7393259;19;20015;-65
2022/11/22 06:42:39;;;;;;;58.55;27.30;;;;;;;-2.39;93.80;99562.59;7393195;19;20022;-69
2022/11/22 06:45:09;;;;;;;60.03;27.48;;;;;;;-2.38;93.70;99572.88;7394234;19;20014;-69
2022/11/22 06:47:37;;;;;;;55.30;27.10;;;;;;;-2.34;93.74;99566.09;7394236;19;20481;-69
2022/11/22 06:50:09;;;;;;;54.03;27.75;;;;;;;-2.34;93.64;99579.81;7392648;19;20070;-68
2022/11/22 06:52:38;;;;;;;56.42;26.30;;;;;;;-2.31;93.69;99579.84;7392869;19;20035;-68
2022/11/22 06:55:07;;;;;;;57.00;25.98;;;;;;;-2.30;93.79;99573.84;7392586;19;20018;-67
2022/11/22 06:57:36;;;;;;;57.58;26.73;;;;;;;-2.28;93.79;99567.88;7394530;19;20022;-68
2022/11/22 07:00:05;;;;;;;57.08;27.33;;;;;;;-2.27;93.68;99575.59;7393200;19;20026;-68
2022/11/22 07:02:33;;;;;;;54.25;25.02;;;;;;;-2.27;93.70;99575.59;7401925;19;20031;-67
2022/11/22 07:05:02;;;;;;;56.08;27.48;;;;;;;-2.24;93.78;99574.75;7398622;19;20071;-68
2022/11/22 07:07:33;;;;;;;62.47;28.33;;;;;;;-2.24;93.58;99575.63;7398593;19;20020;-69
2022/11/22 07:10:01;;;;;;;53.22;25.88;;;;;;;-2.21;93.79;99590.19;7398859;19;20485;-67
2022/11/22 07:12:30;;;;;;;56.00;27.00;;;;;;;-2.20;93.76;99579.97;7401991;19;20022;-68
2022/11/22 07:14:58;;;;;;;60.65;27.70;;;;;;;-2.18;93.69;99585.97;7399895;19;20431;-68
2022/11/22 07:17:26;;;;;;;57.25;26.30;;;;;;;-2.16;93.59;99592.00;7398922;19;20090;-68
2022/11/22 07:19:55;;;;;;;60.97;26.65;;;;;;;-2.14;93.69;99582.63;7399240;19;20488;-68
2022/11/22 07:22:23;;;;;;;64.72;28.25;;;;;;;-2.12;93.63;99574.91;7400990;19;20536;-68
2022/11/22 07:24:54;;;;;;;60.50;27.00;;;;;;;-2.10;93.64;99559.50;7400607;19;20018;-68
2022/11/22 07:27:23;;;;;;;64.88;28.52;;;;;;;-2.09;93.81;99548.38;7399085;19;20428;-70
2022/11/22 07:29:51;;;;;;;60.40;28.00;;;;;;;-2.09;93.73;99550.94;7398410;19;20082;-68
2022/11/22 07:32:20;;;;;;;60.47;29.35;;;;;;;-2.06;93.77;99564.69;7400742;19;20528;-67
2022/11/22 07:34:48;;;;;;;61.40;28.58;;;;;;;-2.05;93.70;99558.69;7399894;19;20074;-69
2022/11/22 07:37:17;;;;;;;62.45;27.55;;;;;;;-2.01;93.86;99563.03;7397920;19;20585;-68
2022/11/22 07:39:45;;;;;;;66.82;30.98;;;;;;;-2.00;93.83;99557.06;7397239;19;20485;-68
2022/11/22 07:42:16;;;;;;;57.55;28.40;;;;;;;-1.98;93.84;99547.63;7398101;19;20015;-68
2022/11/22 07:44:45;;;;;;;60.97;27.27;;;;;;;-1.95;93.64;99544.22;7401515;19;20015;-68
2022/11/22 07:47:13;;;;;;;59.97;27.80;;;;;;;-1.94;93.79;99538.25;7398038;19;20022;-69
2022/11/22 07:49:42;;;;;;;62.67;29.55;;;;;;;-1.90;93.84;99536.56;7398994;19;20074;-69
2022/11/22 07:52:10;;;;;;;61.65;28.70;;;;;;;-1.86;94.03;99535.75;7400415;19;20434;-68
2022/11/22 07:54:38;;;;;;;64.97;29.48;;;;;;;-1.82;93.95;99558.94;7397044;19;20078;-68
2022/11/22 07:57:07;;;;;;;66.40;29.85;;;;;;;-1.77;94.20;99550.41;7400115;19;20022;-68
2022/11/22 07:59:38;;;;;;;69.22;29.30;;;;;;;-1.72;93.74;99553.88;7397436;19;20019;-68
2022/11/22 08:02:06;;;;;;;62.75;29.77;;;;;;;-1.72;93.91;99541.00;7399728;19;20070;-69
2022/11/22 08:04:35;;;;;;;68.13;29.00;;;;;;;-1.67;94.43;99541.91;7400222;19;20035;-68
2022/11/22 08:07:03;;;;;;;82.10;32.80;;;;;;;-1.59;95.32;99537.69;7397804;19;20506;-66
2022/11/22 08:09:32;;;;;;;73.47;30.63;;;;;;;-1.49;95.15;99526.63;7398426;19;20035;-68
2022/11/22 08:12:00;;;;;;;64.93;29.58;;;;;;;-1.44;94.37;99533.50;7398697;19;20422;-68
2022/11/22 08:14:29;;;;;;;68.68;30.50;;;;;;;-1.45;93.72;99536.94;7398669;19;20031;-68
2022/11/22 08:17:00;;;;;;;67.55;30.65;;;;;;;-1.44;93.63;99548.94;7398943;19;20024;-67
2022/11/22 08:19:28;;;;;;;67.00;28.95;;;;;;;-1.42;94.06;99549.84;7397788;19;20014;-68
2022/11/22 08:21:57;;;;;;;63.47;28.95;;;;;;;-1.40;93.93;99550.69;7400504;19;20086;-70
2022/11/22 08:24:25;;;;;;;69.13;30.75;;;;;;;-1.38;93.94;99546.44;7396463;19;20496;-69
2022/11/22 08:26:54;;;;;;;70.25;31.77;;;;;;;-1.36;93.71;99552.47;7397490;19;20068;-68
2022/11/22 08:29:22;;;;;;;58.25;26.35;;;;;;;-1.35;93.81;99556.75;7397452;19;20035;-67
2022/11/22 08:31:51;;;;;;;64.90;30.30;;;;;;;-1.31;93.75;99563.66;7399308;19;20419;-68
2022/11/22 08:34:22;;;;;;;64.75;29.52;;;;;;;-1.28;93.68;99565.38;7398962;19;20023;-68
2022/11/22 08:36:50;;;;;;;58.47;27.45;;;;;;;-1.25;93.67;99566.28;7397385;19;20035;-69
2022/11/22 08:39:20;;;;;;;64.97;31.13;;;;;;;-1.25;93.57;99568.84;7396227;19;20031;-68
2022/11/22 08:41:49;;;;;;;63.88;28.90;;;;;;;-1.22;93.41;99573.16;7399061;19;20018;-69
2022/11/22 08:44:17;;;;;;;60.65;28.17;;;;;;;-1.20;93.65;99568.84;7396736;19;20045;-69
2022/11/22 08:46:46;;;;;;;56.88;28.40;;;;;;;-1.17;93.48;99577.47;7396535;19;20023;-67
2022/11/22 08:49:14;;;;;;;62.15;28.48;;;;;;;-1.14;93.79;99568.91;7397425;19;20019;-68
2022/11/22 08:51:46;;;;;;;59.70;26.73;;;;;;;-1.11;93.85;99578.34;7398895;19;20027;-67
2022/11/22 08:54:16;;;;;;;58.90;27.35;;;;;;;-1.07;93.71;99572.41;7398744;19;20019;-69
2022/11/22 08:56:44;;;;;;;55.80;26.80;;;;;;;-1.09;93.61;99561.22;7395862;19;20078;-67
2022/11/22 08:59:12;;;;;;;56.40;27.73;;;;;;;-1.01;93.81;99572.41;7395417;19;20418;-68
2022/11/22 09:01:41;;;;;;;63.92;30.23;;;;;;;-0.98;93.98;99570.72;7395945;19;20022;-66
2022/11/22 09:04:09;;;;;;;62.65;28.70;;;;;;;-0.93;93.78;99575.06;7397770;19;20489;-67
2022/11/22 09:06:38;;;;;;;51.95;25.85;;;;;;;-0.89;93.63;99574.22;7397643;19;20389;-67
2022/11/22 09:09:09;;;;;;;53.60;26.95;;;;;;;-0.85;93.52;99571.69;7395116;19;20508;-66
2022/11/22 09:11:38;;;;;;;51.15;27.05;;;;;;;-0.82;93.72;99573.41;7396122;19;20082;-67
2022/11/22 09:14:06;;;;;;;54.13;26.55;;;;;;;-0.75;93.45;99579.47;7397967;19;20019;-67
2022/11/22 09:16:35;;;;;;;47.85;24.80;;;;;;;-0.71;93.33;99589.78;7395481;19;20548;-67
2022/11/22 09:19:03;;;;;;;52.85;26.70;;;;;;;-0.69;93.51;99585.50;7396452;19;20421;-67
2022/11/22 09:21:32;;;;;;;52.63;26.15;;;;;;;-0.61;93.34;99589.84;7397037;19;20010;-66
2022/11/22 09:24:00;;;;;;;49.28;25.65;;;;;;;-0.56;93.42;99594.13;7395556;19;20035;-66
2022/11/22 09:26:32;;;;;;;53.80;25.98;;;;;;;-0.52;93.24;99588.16;7396482;19;20014;-66
2022/11/22 09:29:00;;;;;;;50.78;25.65;;;;;;;-0.46;93.26;99583.91;7397154;19;20018;-67
2022/11/22 09:31:29;;;;;;;53.03;25.95;;;;;;;-0.43;92.96;99589.06;7397017;19;20091;-67
2022/11/22 09:33:57;;;;;;;47.00;24.88;;;;;;;-0.39;92.96;99595.94;7396475;19;20011;-66
2022/11/22 09:36:27;;;;;;;48.47;23.85;;;;;;;-0.36;93.27;99598.53;7395654;19;20419;-67
2022/11/22 09:38:57;;;;;;;50.45;24.00;;;;;;;-0.32;92.98;99605.44;7396198;19;20050;-66
2022/11/22 09:41:45;;;;;;;47.65;23.50;;;;;;;-0.30;92.92;99611.47;7395171;19;20018;-66
2022/11/22 09:44:22;;;;;;;47.28;25.02;;;;;;;-0.24;92.82;99613.19;7397192;19;20027;-67
2022/11/22 09:47:00;;;;;;;43.53;24.10;;;;;;;-0.22;92.76;99614.06;7395630;19;20026;-67
2022/11/22 09:49:30;;;;;;;46.30;24.00;;;;;;;-0.19;92.89;99617.53;7395902;19;20031;-68
2022/11/22 09:52:08;;;;;;;43.50;23.77;;;;;;;-0.15;92.78;99620.09;7396681;19;20019;-67
2022/11/22 09:54:43;;;;;;;43.53;23.05;;;;;;;-0.12;92.76;99620.97;7394479;19;20037;-66
2022/11/22 09:57:20;;;;;;;43.05;24.00;;;;;;;-0.07;92.82;99628.75;7395975;19;20473;-67
2022/11/22 09:59:55;;;;;;;45.78;24.33;;;;;;;-0.04;92.82;99614.16;7394638;19;20022;-67
2022/11/22 10:02:29;;;;;;;43.10;23.85;;;;;;;0.02;92.36;99615.03;7396859;19;20095;-67
2022/11/22 10:05:01;;;;;;;43.25;23.13;;;;;;;0.04;92.42;99615.84;7395314;19;20078;-67
2022/11/22 10:07:35;;;;;;;44.20;23.95;;;;;;;0.08;92.57;99615.88;7396361;19;20082;-67
2022/11/22 10:10:07;;;;;;;46.30;24.08;;;;;;;0.10;92.40;99621.91;7395083;19;20031;-67
2022/11/22 10:12:44;;;;;;;45.80;24.17;;;;;;;0.15;92.53;99621.91;7395913;19;20019;-67
2022/11/22 10:15:21;;;;;;;42.33;23.40;;;;;;;0.19;92.29;99615.94;7393305;19;20485;-67
2022/11/22 10:17:55;;;;;;;46.67;23.50;;;;;;;0.23;92.10;99621.94;7395981;19;20039;-67
2022/11/22 10:20:25;;;;;;;;;;;;;;;0.25;91.82;99626.25;7394202;19;20015;-66
2022/11/22 10:22:54;;;;;;;43.55;24.88;;;;;;;0.30;92.35;99623.66;7394048;19;19935;-66
2022/11/22 10:25:29;;;;;;;45.85;25.17;;;;;;;0.32;92.45;99624.53;7393555;19;20541;-68
2022/11/22 10:28:04;;;;;;;42.75;24.77;;;;;;;0.36;92.36;99615.94;7393041;19;20082;-67
2022/11/22 10:30:38;;;;;;;49.38;25.52;;;;;;;0.42;92.40;99615.97;7393184;19;20502;-67
2022/11/22 10:33:13;;;;;;;46.58;25.95;;;;;;;0.45;92.33;99613.38;7395415;19;20640;-67
2022/11/22 10:35:57;;;;;;;46.35;25.13;;;;;;;0.47;92.02;99606.50;7393905;19;20094;-67
2022/11/22 10:38:45;;;;;;;45.53;24.98;;;;;;;0.54;91.83;99604.78;7395171;19;20018;-67
2022/11/22 10:41:28;;;;;;;46.05;25.27;;;;;;;0.60;91.91;99603.94;7396080;19;20028;-67
2022/11/22 10:44:12;;;;;;;44.72;23.90;;;;;;;0.63;92.10;99599.63;7393270;19;20019;-67
2022/11/22 10:46:48;;;;;;;;;;;;;;;0.69;91.72;99603.94;7395436;19;20082;-68
2022/11/22 10:49:22;;;;;;;40.88;23.40;;;;;;;0.72;91.91;99597.91;7393400;19;20319;-66
2022/11/22 10:51:59;;;;;;;42.88;24.60;;;;;;;0.76;91.53;99600.50;7392790;19;20022;-68
2022/11/22 10:54:36;;;;;;;46.28;23.00;;;;;;;0.80;91.22;99597.03;7394571;19;20019;-68
2022/11/22 10:57:14;;;;;;;50.53;26.15;;;;;;;0.84;91.20;99584.16;7393262;19;20390;-67
2022/11/22 11:00:02;;;;;;;46.25;25.77;;;;;;;0.88;91.17;99586.72;7393710;19;20018;-67
2022/11/22 11:02:49;;;;;;;40.00;24.77;;;;;;;0.92;91.18;99579.81;7395115;19;20011;-67
2022/11/22 11:05:22;;;;;;;46.30;24.52;;;;;;;0.98;91.45;99582.41;7395878;19;20035;-67
2022/11/22 11:07:53;;;;;;;39.97;22.13;;;;;;;1.04;91.44;99584.97;7393058;19;20018;-67
2022/11/22 11:10:24;;;;;;;45.55;25.00;;;;;;;1.11;91.51;99585.81;7392422;19;20007;-65
2022/11/22 11:12:57;;;;;;;39.10;22.73;;;;;;;1.16;91.08;99578.91;7393771;19;20019;-67
2022/11/22 11:15:35;;;;;;;40.78;22.50;;;;;;;1.24;91.08;99586.66;7392106;19;20018;-67
2022/11/22 11:18:16;;;;;;;39.35;22.52;;;;;;;1.29;91.10;99579.78;7392414;19;20024;-66
2022/11/22 11:20:46;;;;;;;45.30;23.55;;;;;;;1.35;91.19;99576.28;7391825;19;20018;-68
2022/11/22 11:23:15;;;;;;;37.70;21.10;;;;;;;1.41;90.88;99581.44;7393662;19;20021;-67
2022/11/22 11:25:45;;;;;;;40.03;23.05;;;;;;;1.46;91.00;99585.72;7391653;19;20097;-67
2022/11/22 11:28:20;;;;;;;36.30;21.10;;;;;;;1.51;91.01;99577.97;7393689;19;20414;-66
2022/11/22 11:30:54;;;;;;;38.58;22.00;;;;;;;1.56;90.64;99586.56;7393010;19;20430;-67
2022/11/22 11:33:27;;;;;;;38.35;22.52;;;;;;;1.61;90.38;99573.63;7391952;19;20022;-67
2022/11/22 11:35:59;;;;;;;39.42;22.95;;;;;;;1.62;90.17;99571.03;7392046;19;20481;-67
2022/11/22 11:38:29;;;;;;;44.38;25.88;;;;;;;1.67;90.23;99571.03;7391318;19;20023;-67
2022/11/22 11:40:59;;;;;;;34.83;21.20;;;;;;;1.72;90.44;99584.78;7393581;19;20070;-67
2022/11/22 11:43:27;;;;;;;36.90;21.95;;;;;;;1.75;90.24;99587.34;7393264;19;20074;-67
2022/11/22 11:46:16;;;;;;;35.05;21.00;;;;;;;1.78;90.18;99581.31;7393460;19;20036;-65
2022/11/22 11:48:45;;;;;;;38.50;23.27;;;;;;;1.82;89.91;99577.84;7400072;19;20019;-67
2022/11/22 11:51:20;;;;;;;40.50;21.42;;;;;;;1.86;89.68;99578.69;7397721;19;20078;-71
2022/11/22 11:54:02;;;;;;;39.47;21.83;;;;;;;1.87;89.25;99577.81;7400486;19;20052;-67